sensor_id;sensor_type;location;lat;lon;timestamp;pressure;altitude;pressure_sealevel;temperature;humidity
77723;BME280;67811;42.656;23.394;2023-05-14T00:00:11;95495.38;;;13.40;53.09
77723;BME280;67811;42.656;23.394;2023-05-14T00:02:37;95502.53;;;13.40;52.71
77723;BME280;67811;42.656;23.394;2023-05-14T00:05:03;95494.38;;;13.41;52.08
77723;BME280;67811;42.656;23.394;2023-05-14T00:07:28;95493.09;;;13.37;52.25
77723;BME280;67811;42.656;23.394;2023-05-14T00:09:53;95484.91;;;13.39;52.38
77723;BME280;67811;42.656;23.394;2023-05-14T00:12:18;95495.78;;;13.37;52.12
77723;BME280;67811;42.656;23.394;2023-05-14T00:14:44;95486.16;;;13.36;52.42
77723;BME280;67811;42.656;23.394;2023-05-14T00:17:09;95489.81;;;13.35;52.84
77723;BME280;67811;42.656;23.394;2023-05-14T00:19:34;95484.72;;;13.40;52.11
77723;BME280;67811;42.656;23.394;2023-05-14T00:22:00;95490.03;;;13.40;52.44
77723;BME280;67811;42.656;23.394;2023-05-14T00:24:25;95490.19;;;13.32;53.13
77723;BME280;67811;42.656;23.394;2023-05-14T00:26:50;95485.44;;;13.28;53.04
77723;BME280;67811;42.656;23.394;2023-05-14T00:29:15;95481.25;;;13.18;52.98
77723;BME280;67811;42.656;23.394;2023-05-14T00:31:41;95463.06;;;13.22;52.84
77723;BME280;67811;42.656;23.394;2023-05-14T00:34:06;95461.28;;;13.29;52.19
77723;BME280;67811;42.656;23.394;2023-05-14T00:36:31;95463.78;;;13.31;52.96
77723;BME280;67811;42.656;23.394;2023-05-14T00:38:56;95462.06;;;13.23;53.27
77723;BME280;67811;42.656;23.394;2023-05-14T00:41:22;95462.50;;;13.27;53.01
77723;BME280;67811;42.656;23.394;2023-05-14T00:43:47;95462.97;;;13.30;53.28
77723;BME280;67811;42.656;23.394;2023-05-14T00:46:13;95459.53;;;13.36;52.01
77723;BME280;67811;42.656;23.394;2023-05-14T00:48:39;95464.66;;;13.38;52.64
77723;BME280;67811;42.656;23.394;2023-05-14T00:51:05;95463.78;;;13.31;52.62
77723;BME280;67811;42.656;23.394;2023-05-14T00:53:30;95464.41;;;13.33;52.64
77723;BME280;67811;42.656;23.394;2023-05-14T00:55:56;95459.31;;;13.38;52.23
77723;BME280;67811;42.656;23.394;2023-05-14T00:58:22;95456.22;;;13.34;52.62
77723;BME280;67811;42.656;23.394;2023-05-14T01:00:48;95455.16;;;13.29;52.17
77723;BME280;67811;42.656;23.394;2023-05-14T01:03:13;95447.66;;;13.17;52.47
77723;BME280;67811;42.656;23.394;2023-05-14T01:08:43;95449.81;;;13.07;52.37
77723;BME280;67811;42.656;23.394;2023-05-14T01:16:49;95438.28;;;13.00;52.43
77723;BME280;67811;42.656;23.394;2023-05-14T01:19:40;95438.19;;;12.87;52.09
77723;BME280;67811;42.656;23.394;2023-05-14T01:22:06;95438.34;;;12.85;52.56
77723;BME280;67811;42.656;23.394;2023-05-14T01:24:31;95445.91;;;12.82;52.70
77723;BME280;67811;42.656;23.394;2023-05-14T01:27:02;95463.13;;;12.86;52.91
77723;BME280;67811;42.656;23.394;2023-05-14T01:29:32;95465.59;;;12.87;52.85
77723;BME280;67811;42.656;23.394;2023-05-14T01:31:59;95474.91;;;12.77;53.32
77723;BME280;67811;42.656;23.394;2023-05-14T01:34:28;95470.47;;;12.84;53.01
77723;BME280;67811;42.656;23.394;2023-05-14T01:36:55;95468.06;;;12.89;53.24
77723;BME280;67811;42.656;23.394;2023-05-14T01:39:23;95463.63;;;12.96;52.89
77723;BME280;67811;42.656;23.394;2023-05-14T01:41:49;95465.91;;;12.99;52.57
77723;BME280;67811;42.656;23.394;2023-05-14T01:44:16;95466.72;;;12.78;52.76
77723;BME280;67811;42.656;23.394;2023-05-14T01:46:41;95472.50;;;12.82;52.55
77723;BME280;67811;42.656;23.394;2023-05-14T01:49:07;95469.38;;;12.78;52.66
77723;BME280;67811;42.656;23.394;2023-05-14T01:51:32;95469.06;;;12.66;52.72
77723;BME280;67811;42.656;23.394;2023-05-14T01:53:57;95464.09;;;12.63;53.08
77723;BME280;67811;42.656;23.394;2023-05-14T01:56:23;95468.25;;;12.66;54.15
77723;BME280;67811;42.656;23.394;2023-05-14T01:58:48;95464.31;;;12.62;54.05
77723;BME280;67811;42.656;23.394;2023-05-14T02:01:14;95478.41;;;12.62;56.46
77723;BME280;67811;42.656;23.394;2023-05-14T02:03:39;95484.50;;;12.56;56.63
77723;BME280;67811;42.656;23.394;2023-05-14T02:06:04;95478.00;;;12.59;56.76
77723;BME280;67811;42.656;23.394;2023-05-14T02:08:30;95476.78;;;12.61;57.14
77723;BME280;67811;42.656;23.394;2023-05-14T02:10:55;95477.66;;;12.47;57.51
77723;BME280;67811;42.656;23.394;2023-05-14T02:13:20;95483.88;;;12.39;57.97
77723;BME280;67811;42.656;23.394;2023-05-14T02:15:45;95479.56;;;12.38;56.89
77723;BME280;67811;42.656;23.394;2023-05-14T02:18:11;95476.59;;;12.27;56.85
77723;BME280;67811;42.656;23.394;2023-05-14T02:20:36;95472.44;;;12.24;57.23
77723;BME280;67811;42.656;23.394;2023-05-14T02:23:01;95482.91;;;12.26;58.59
77723;BME280;67811;42.656;23.394;2023-05-14T02:25:27;95487.56;;;12.24;57.15
77723;BME280;67811;42.656;23.394;2023-05-14T02:27:52;95485.84;;;12.31;58.86
77723;BME280;67811;42.656;23.394;2023-05-14T02:30:17;95492.44;;;12.20;58.61
77723;BME280;67811;42.656;23.394;2023-05-14T02:32:42;95493.88;;;12.08;58.71
77723;BME280;67811;42.656;23.394;2023-05-14T02:35:08;95494.28;;;12.05;59.20
77723;BME280;67811;42.656;23.394;2023-05-14T02:37:34;95495.72;;;12.07;59.62
77723;BME280;67811;42.656;23.394;2023-05-14T02:39:59;95495.09;;;12.05;58.70
77723;BME280;67811;42.656;23.394;2023-05-14T02:42:24;95500.75;;;12.02;58.41
77723;BME280;67811;42.656;23.394;2023-05-14T02:44:50;95510.22;;;12.05;58.64
77723;BME280;67811;42.656;23.394;2023-05-14T02:47:15;95510.56;;;12.02;58.94
77723;BME280;67811;42.656;23.394;2023-05-14T02:49:40;95511.66;;;12.07;59.93
77723;BME280;67811;42.656;23.394;2023-05-14T02:52:06;95504.06;;;12.19;59.35
77723;BME280;67811;42.656;23.394;2023-05-14T02:54:31;95509.09;;;12.29;58.66
77723;BME280;67811;42.656;23.394;2023-05-14T02:56:56;95510.22;;;12.20;58.40
77723;BME280;67811;42.656;23.394;2023-05-14T02:59:23;95507.56;;;12.20;57.32
77723;BME280;67811;42.656;23.394;2023-05-14T03:01:48;95505.53;;;12.22;58.24
77723;BME280;67811;42.656;23.394;2023-05-14T03:04:13;95512.69;;;12.06;57.79
77723;BME280;67811;42.656;23.394;2023-05-14T03:06:39;95510.28;;;12.11;58.39
77723;BME280;67811;42.656;23.394;2023-05-14T03:09:04;95517.63;;;12.09;57.83
77723;BME280;67811;42.656;23.394;2023-05-14T03:11:29;95512.03;;;12.04;58.25
77723;BME280;67811;42.656;23.394;2023-05-14T03:13:54;95506.75;;;12.04;59.03
77723;BME280;67811;42.656;23.394;2023-05-14T03:16:20;95491.50;;;12.13;58.30
77723;BME280;67811;42.656;23.394;2023-05-14T03:18:45;95479.78;;;12.07;57.76
77723;BME280;67811;42.656;23.394;2023-05-14T03:21:10;95484.00;;;12.02;57.87
77723;BME280;67811;42.656;23.394;2023-05-14T03:23:36;95471.47;;;11.96;58.16
77723;BME280;67811;42.656;23.394;2023-05-14T03:26:01;95481.38;;;11.87;57.82
77723;BME280;67811;42.656;23.394;2023-05-14T03:28:26;95491.59;;;11.90;58.59
77723;BME280;67811;42.656;23.394;2023-05-14T03:30:52;95495.00;;;11.84;58.51
77723;BME280;67811;42.656;23.394;2023-05-14T03:33:17;95497.88;;;11.74;58.71
77723;BME280;67811;42.656;23.394;2023-05-14T03:35:42;95487.72;;;11.63;60.50
77723;BME280;67811;42.656;23.394;2023-05-14T03:38:08;95492.00;;;11.49;60.34
77723;BME280;67811;42.656;23.394;2023-05-14T03:40:33;95510.19;;;11.38;61.32
77723;BME280;67811;42.656;23.394;2023-05-14T03:42:58;95510.72;;;11.33;61.29
77723;BME280;67811;42.656;23.394;2023-05-14T03:45:24;95500.41;;;11.15;61.32
77723;BME280;67811;42.656;23.394;2023-05-14T03:47:49;95508.19;;;11.17;62.91
77723;BME280;67811;42.656;23.394;2023-05-14T03:50:14;95505.44;;;11.10;63.02
77723;BME280;67811;42.656;23.394;2023-05-14T03:52:39;95506.31;;;11.02;63.91
77723;BME280;67811;42.656;23.394;2023-05-14T03:55:05;95496.72;;;11.01;63.44
77723;BME280;67811;42.656;23.394;2023-05-14T03:57:30;95508.50;;;10.99;63.68
77723;BME280;67811;42.656;23.394;2023-05-14T03:59:56;95502.31;;;11.06;63.11
77723;BME280;67811;42.656;23.394;2023-05-14T04:02:21;95501.50;;;11.06;62.21
77723;BME280;67811;42.656;23.394;2023-05-14T04:04:46;95505.06;;;11.13;62.03
77723;BME280;67811;42.656;23.394;2023-05-14T04:07:12;95484.50;;;11.15;62.57
77723;BME280;67811;42.656;23.394;2023-05-14T04:09:37;95498.34;;;11.25;62.19
77723;BME280;67811;42.656;23.394;2023-05-14T04:12:03;95512.00;;;11.37;62.25
77723;BME280;67811;42.656;23.394;2023-05-14T04:14:28;95515.13;;;11.41;62.38
77723;BME280;67811;42.656;23.394;2023-05-14T04:16:53;95514.13;;;11.42;62.52
77723;BME280;67811;42.656;23.394;2023-05-14T04:19:18;95518.88;;;11.46;62.53
77723;BME280;67811;42.656;23.394;2023-05-14T04:21:44;95516.00;;;11.56;61.73
77723;BME280;67811;42.656;23.394;2023-05-14T04:24:09;95513.34;;;11.56;63.05
77723;BME280;67811;42.656;23.394;2023-05-14T04:26:34;95519.56;;;11.48;61.46
77723;BME280;67811;42.656;23.394;2023-05-14T04:29:00;95521.44;;;11.40;62.38
77723;BME280;67811;42.656;23.394;2023-05-14T04:31:25;95522.50;;;11.30;62.31
77723;BME280;67811;42.656;23.394;2023-05-14T04:33:50;95533.81;;;11.24;62.93
77723;BME280;67811;42.656;23.394;2023-05-14T04:36:15;95542.84;;;11.15;63.32
77723;BME280;67811;42.656;23.394;2023-05-14T04:38:41;95541.72;;;11.09;63.10
77723;BME280;67811;42.656;23.394;2023-05-14T04:41:06;95545.84;;;11.12;63.49
77723;BME280;67811;42.656;23.394;2023-05-14T04:43:31;95544.56;;;11.08;65.18
77723;BME280;67811;42.656;23.394;2023-05-14T04:45:56;95537.81;;;10.97;65.54
77723;BME280;67811;42.656;23.394;2023-05-14T04:48:22;95546.50;;;10.91;66.39
77723;BME280;67811;42.656;23.394;2023-05-14T04:50:47;95556.47;;;10.89;66.27
77723;BME280;67811;42.656;23.394;2023-05-14T04:53:12;95547.84;;;10.87;67.24
77723;BME280;67811;42.656;23.394;2023-05-14T04:55:37;95562.59;;;10.90;65.72
77723;BME280;67811;42.656;23.394;2023-05-14T04:58:03;95552.00;;;10.81;64.87
77723;BME280;67811;42.656;23.394;2023-05-14T05:00:28;95563.53;;;10.66;65.32
77723;BME280;67811;42.656;23.394;2023-05-14T05:02:53;95579.28;;;10.67;66.89
77723;BME280;67811;42.656;23.394;2023-05-14T05:05:19;95582.44;;;10.63;66.01
77723;BME280;67811;42.656;23.394;2023-05-14T05:07:45;95580.66;;;10.55;67.26
77723;BME280;67811;42.656;23.394;2023-05-14T05:10:10;95573.91;;;10.44;67.18
77723;BME280;67811;42.656;23.394;2023-05-14T05:12:35;95595.31;;;10.35;68.78
77723;BME280;67811;42.656;23.394;2023-05-14T05:15:00;95604.06;;;10.27;68.16
77723;BME280;67811;42.656;23.394;2023-05-14T05:17:26;95607.22;;;10.22;69.64
77723;BME280;67811;42.656;23.394;2023-05-14T05:19:51;95616.00;;;10.15;70.25
77723;BME280;67811;42.656;23.394;2023-05-14T05:22:17;95621.19;;;10.00;70.96
77723;BME280;67811;42.656;23.394;2023-05-14T05:24:43;95620.03;;;9.94;72.87
77723;BME280;67811;42.656;23.394;2023-05-14T05:27:08;95627.63;;;9.81;74.25
77723;BME280;67811;42.656;23.394;2023-05-14T05:29:33;95624.50;;;9.77;74.69
77723;BME280;67811;42.656;23.394;2023-05-14T05:31:59;95621.38;;;9.74;77.21
77723;BME280;67811;42.656;23.394;2023-05-14T05:34:24;95621.03;;;9.69;77.01
77723;BME280;67811;42.656;23.394;2023-05-14T05:36:49;95632.09;;;9.64;76.58
77723;BME280;67811;42.656;23.394;2023-05-14T05:39:15;95635.59;;;9.65;77.29
77723;BME280;67811;42.656;23.394;2023-05-14T05:41:40;95642.38;;;9.67;76.74
77723;BME280;67811;42.656;23.394;2023-05-14T05:44:06;95641.22;;;9.62;78.04
77723;BME280;67811;42.656;23.394;2023-05-14T05:46:31;95638.56;;;9.54;78.26
77723;BME280;67811;42.656;23.394;2023-05-14T05:48:56;95642.19;;;9.53;77.79
77723;BME280;67811;42.656;23.394;2023-05-14T05:51:22;95630.63;;;9.54;79.34
77723;BME280;67811;42.656;23.394;2023-05-14T05:53:47;95648.66;;;9.58;78.65
77723;BME280;67811;42.656;23.394;2023-05-14T05:56:12;95640.88;;;9.65;78.57
77723;BME280;67811;42.656;23.394;2023-05-14T05:58:38;95651.47;;;9.65;78.97
77723;BME280;67811;42.656;23.394;2023-05-14T06:01:03;95642.72;;;9.56;79.11
77723;BME280;67811;42.656;23.394;2023-05-14T06:03:28;95635.41;;;9.58;80.23
77723;BME280;67811;42.656;23.394;2023-05-14T06:05:53;95621.84;;;9.53;80.17
77723;BME280;67811;42.656;23.394;2023-05-14T06:08:19;95624.84;;;9.58;81.63
77723;BME280;67811;42.656;23.394;2023-05-14T06:10:44;95625.31;;;9.70;82.82
77723;BME280;67811;42.656;23.394;2023-05-14T06:13:09;95627.47;;;9.66;81.65
77723;BME280;67811;42.656;23.394;2023-05-14T06:15:34;95627.97;;;9.70;81.26
77723;BME280;67811;42.656;23.394;2023-05-14T06:18:00;95633.75;;;9.65;80.49
77723;BME280;67811;42.656;23.394;2023-05-14T06:20:25;95625.00;;;9.65;81.30
77723;BME280;67811;42.656;23.394;2023-05-14T06:22:50;95631.44;;;9.54;81.69
77723;BME280;67811;42.656;23.394;2023-05-14T06:25:16;95618.56;;;9.51;81.15
77723;BME280;67811;42.656;23.394;2023-05-14T06:27:41;95610.94;;;9.48;83.23
77723;BME280;67811;42.656;23.394;2023-05-14T06:30:07;95616.56;;;9.53;84.61
77723;BME280;67811;42.656;23.394;2023-05-14T06:32:32;95627.16;;;9.45;83.79
77723;BME280;67811;42.656;23.394;2023-05-14T06:34:57;95627.81;;;9.47;84.25
77723;BME280;67811;42.656;23.394;2023-05-14T06:37:23;95639.53;;;9.44;84.49
77723;BME280;67811;42.656;23.394;2023-05-14T06:39:48;95647.16;;;9.47;84.77
77723;BME280;67811;42.656;23.394;2023-05-14T06:42:13;95647.81;;;9.58;84.06
77723;BME280;67811;42.656;23.394;2023-05-14T06:44:38;95639.22;;;9.64;83.07
77723;BME280;67811;42.656;23.394;2023-05-14T06:47:04;95625.97;;;9.56;85.26
77723;BME280;67811;42.656;23.394;2023-05-14T06:49:29;95628.97;;;9.61;85.11
77723;BME280;67811;42.656;23.394;2023-05-14T06:51:54;95622.53;;;9.63;84.97
77723;BME280;67811;42.656;23.394;2023-05-14T06:54:20;95617.72;;;9.67;85.95
77723;BME280;67811;42.656;23.394;2023-05-14T06:56:45;95607.09;;;9.83;86.77
77723;BME280;67811;42.656;23.394;2023-05-14T06:59:10;95602.69;;;9.84;85.11
77723;BME280;67811;42.656;23.394;2023-05-14T07:01:36;95607.97;;;9.75;84.77
77723;BME280;67811;42.656;23.394;2023-05-14T07:04:01;95597.06;;;9.62;84.84
77723;BME280;67811;42.656;23.394;2023-05-14T07:06:26;95605.66;;;9.72;85.63
77723;BME280;67811;42.656;23.394;2023-05-14T07:08:51;95611.09;;;9.71;85.91
77723;BME280;67811;42.656;23.394;2023-05-14T07:11:17;95610.56;;;10.08;84.84
77723;BME280;67811;42.656;23.394;2023-05-14T07:13:42;95602.59;;;10.16;85.34
77723;BME280;67811;42.656;23.394;2023-05-14T07:16:07;95602.94;;;10.13;85.05
77723;BME280;67811;42.656;23.394;2023-05-14T07:18:32;95615.53;;;10.11;84.88
77723;BME280;67811;42.656;23.394;2023-05-14T07:20:58;95629.13;;;9.75;84.36
77723;BME280;67811;42.656;23.394;2023-05-14T07:23:23;95652.78;;;9.61;85.53
77723;BME280;67811;42.656;23.394;2023-05-14T07:25:48;95661.69;;;9.60;84.33
77723;BME280;67811;42.656;23.394;2023-05-14T07:28:13;95655.59;;;9.67;84.38
77723;BME280;67811;42.656;23.394;2023-05-14T07:30:39;95636.75;;;9.70;85.08
77723;BME280;67811;42.656;23.394;2023-05-14T07:33:04;95638.56;;;9.54;85.19
77723;BME280;67811;42.656;23.394;2023-05-14T07:35:29;95628.97;;;9.53;85.44
77723;BME280;67811;42.656;23.394;2023-05-14T07:37:55;95633.41;;;9.44;86.04
77723;BME280;67811;42.656;23.394;2023-05-14T07:40:20;95628.47;;;9.49;86.81
77723;BME280;67811;42.656;23.394;2023-05-14T07:42:45;95633.59;;;9.50;87.03
77723;BME280;67811;42.656;23.394;2023-05-14T07:45:10;95627.16;;;9.45;86.61
77723;BME280;67811;42.656;23.394;2023-05-14T07:47:36;95627.63;;;9.48;86.76
77723;BME280;67811;42.656;23.394;2023-05-14T07:50:01;95639.53;;;9.44;86.69
77723;BME280;67811;42.656;23.394;2023-05-14T07:52:26;95639.69;;;9.43;87.08
77723;BME280;67811;42.656;23.394;2023-05-14T07:54:52;95630.09;;;9.34;85.94
77723;BME280;67811;42.656;23.394;2023-05-14T07:57:18;95631.44;;;9.30;85.92
77723;BME280;67811;42.656;23.394;2023-05-14T07:59:43;95656.53;;;9.34;86.60
77723;BME280;67811;42.656;23.394;2023-05-14T08:02:08;95662.31;;;9.21;86.57
77723;BME280;67811;42.656;23.394;2023-05-14T08:04:34;95669.25;;;9.22;86.62
77723;BME280;67811;42.656;23.394;2023-05-14T08:06:59;95653.88;;;9.17;86.92
77723;BME280;67811;42.656;23.394;2023-05-14T08:09:24;95641.81;;;9.15;87.20
77723;BME280;67811;42.656;23.394;2023-05-14T08:11:49;95642.84;;;9.30;88.54
77723;BME280;67811;42.656;23.394;2023-05-14T08:14:15;95634.88;;;9.22;87.61
77723;BME280;67811;42.656;23.394;2023-05-14T08:16:40;95629.44;;;9.32;88.61
77723;BME280;67811;42.656;23.394;2023-05-14T08:19:05;95635.19;;;9.11;88.36
77723;BME280;67811;42.656;23.394;2023-05-14T08:21:30;95638.19;;;9.32;88.91
77723;BME280;67811;42.656;23.394;2023-05-14T08:23:56;95639.03;;;9.49;89.62
77723;BME280;67811;42.656;23.394;2023-05-14T08:26:21;95634.59;;;9.66;89.35
77723;BME280;67811;42.656;23.394;2023-05-14T08:28:46;95631.78;;;9.59;87.20
77723;BME280;67811;42.656;23.394;2023-05-14T08:31:11;95626.50;;;9.59;86.14
77723;BME280;67811;42.656;23.394;2023-05-14T08:33:37;95628.28;;;9.67;87.22
77723;BME280;67811;42.656;23.394;2023-05-14T08:36:02;95623.66;;;9.77;87.88
77723;BME280;67811;42.656;23.394;2023-05-14T08:38:27;95617.88;;;9.65;86.98
77723;BME280;67811;42.656;23.394;2023-05-14T08:40:56;95609.78;;;9.59;86.95
77723;BME280;67811;42.656;23.394;2023-05-14T08:43:25;95612.44;;;9.59;86.97
77723;BME280;67811;42.656;23.394;2023-05-14T08:45:56;95605.81;;;9.71;87.40
77723;BME280;67811;42.656;23.394;2023-05-14T08:48:25;95604.50;;;9.75;86.76
77723;BME280;67811;42.656;23.394;2023-05-14T08:50:53;95599.72;;;9.62;86.41
77723;BME280;67811;42.656;23.394;2023-05-14T08:53:19;95591.22;;;9.83;87.22
77723;BME280;67811;42.656;23.394;2023-05-14T08:55:44;95610.44;;;9.69;87.10
77723;BME280;67811;42.656;23.394;2023-05-14T08:58:11;95603.50;;;9.68;86.79
77723;BME280;67811;42.656;23.394;2023-05-14T09:00:37;95595.88;;;9.81;87.27
77723;BME280;67811;42.656;23.394;2023-05-14T09:03:03;95592.25;;;9.74;86.69
77723;BME280;67811;42.656;23.394;2023-05-14T09:05:29;95590.25;;;9.76;85.76
77723;BME280;67811;42.656;23.394;2023-05-14T09:07:54;95592.41;;;9.81;85.52
77723;BME280;67811;42.656;23.394;2023-05-14T09:10:20;95596.53;;;9.83;86.11
77723;BME280;67811;42.656;23.394;2023-05-14T09:12:45;95599.16;;;9.99;85.56
77723;BME280;67811;42.656;23.394;2023-05-14T09:15:10;95600.31;;;9.97;85.04
77723;BME280;67811;42.656;23.394;2023-05-14T09:17:35;95588.41;;;10.01;86.53
77723;BME280;67811;42.656;23.394;2023-05-14T09:20:01;95593.38;;;9.96;85.73
77723;BME280;67811;42.656;23.394;2023-05-14T09:22:28;95604.78;;;9.96;85.55
77723;BME280;67811;42.656;23.394;2023-05-14T09:25:07;95606.16;;;9.84;85.57
77723;BME280;67811;42.656;23.394;2023-05-14T09:27:33;95599.34;;;9.82;85.44
77723;BME280;67811;42.656;23.394;2023-05-14T09:30:08;95614.41;;;9.89;85.65
77723;BME280;67811;42.656;23.394;2023-05-14T09:32:35;95590.25;;;9.76;85.28
77723;BME280;67811;42.656;23.394;2023-05-14T09:37:49;95570.03;;;9.99;85.02
77723;BME280;67811;42.656;23.394;2023-05-14T09:40:16;95588.22;;;10.02;85.01
77723;BME280;67811;42.656;23.394;2023-05-14T09:42:42;95591.53;;;10.04;85.70
77723;BME280;67811;42.656;23.394;2023-05-14T09:45:08;95584.94;;;10.00;85.62
77723;BME280;67811;42.656;23.394;2023-05-14T09:47:34;95562.09;;;9.99;85.79
77723;BME280;67811;42.656;23.394;2023-05-14T09:49:59;95564.13;;;9.89;84.82
77723;BME280;67811;42.656;23.394;2023-05-14T09:52:25;95570.69;;;9.93;84.62
77723;BME280;67811;42.656;23.394;2023-05-14T09:54:51;95565.41;;;9.93;84.98
77723;BME280;67811;42.656;23.394;2023-05-14T09:57:16;95560.44;;;9.98;84.44
77723;BME280;67811;42.656;23.394;2023-05-14T09:59:42;95570.53;;;10.11;86.08
77723;BME280;67811;42.656;23.394;2023-05-14T10:02:22;95564.88;;;10.14;84.08
77723;BME280;67811;42.656;23.394;2023-05-14T10:04:59;95562.91;;;10.08;84.20
77723;BME280;67811;42.656;23.394;2023-05-14T10:07:32;95551.09;;;10.27;85.17
77723;BME280;67811;42.656;23.394;2023-05-14T10:10:02;95543.84;;;10.29;85.96
77723;BME280;67811;42.656;23.394;2023-05-14T10:12:33;95536.19;;;10.34;85.45
77723;BME280;67811;42.656;23.394;2023-05-14T10:15:05;95534.25;;;10.28;83.95
77723;BME280;67811;42.656;23.394;2023-05-14T10:17:33;95533.72;;;10.16;84.71
77723;BME280;67811;42.656;23.394;2023-05-14T10:20:02;95532.09;;;10.23;84.76
77723;BME280;67811;42.656;23.394;2023-05-14T10:22:32;95515.69;;;10.28;83.11
77723;BME280;67811;42.656;23.394;2023-05-14T10:24:58;95512.50;;;10.33;84.48
77723;BME280;67811;42.656;23.394;2023-05-14T10:27:24;95509.06;;;10.16;84.82
77723;BME280;67811;42.656;23.394;2023-05-14T10:29:51;95527.47;;;10.17;85.09
77723;BME280;67811;42.656;23.394;2023-05-14T10:32:19;95537.94;;;10.02;85.20
77723;BME280;67811;42.656;23.394;2023-05-14T10:34:44;95547.00;;;10.08;84.39
77723;BME280;67811;42.656;23.394;2023-05-14T10:37:13;95552.13;;;10.10;85.09
77723;BME280;67811;42.656;23.394;2023-05-14T10:39:47;95530.44;;;10.14;85.36
77723;BME280;67811;42.656;23.394;2023-05-14T10:44:52;95531.13;;;10.08;85.89
77723;BME280;67811;42.656;23.394;2023-05-14T10:47:18;95522.38;;;9.99;85.18
77723;BME280;67811;42.656;23.394;2023-05-14T10:49:45;95531.50;;;9.89;85.48
77723;BME280;67811;42.656;23.394;2023-05-14T10:52:11;95531.50;;;9.89;86.30
77723;BME280;67811;42.656;23.394;2023-05-14T10:54:37;95524.88;;;9.93;86.52
77723;BME280;67811;42.656;23.394;2023-05-14T10:57:02;95516.63;;;9.88;86.28
77723;BME280;67811;42.656;23.394;2023-05-14T10:59:28;95521.09;;;9.95;87.36
77723;BME280;67811;42.656;23.394;2023-05-14T11:01:56;95520.41;;;9.93;87.37
77723;BME280;67811;42.656;23.394;2023-05-14T11:04:26;95524.72;;;9.94;87.71
77723;BME280;67811;42.656;23.394;2023-05-14T11:06:52;95518.25;;;9.97;87.74
77723;BME280;67811;42.656;23.394;2023-05-14T11:09:20;95508.94;;;10.09;87.54
77723;BME280;67811;42.656;23.394;2023-05-14T11:11:45;95510.06;;;10.15;87.68
77723;BME280;67811;42.656;23.394;2023-05-14T11:14:11;95512.63;;;10.00;86.88
77723;BME280;67811;42.656;23.394;2023-05-14T11:16:36;95514.06;;;10.11;87.57
77723;BME280;67811;42.656;23.394;2023-05-14T11:19:03;95524.38;;;9.97;86.56
77723;BME280;67811;42.656;23.394;2023-05-14T11:21:29;95522.53;;;10.06;86.21
77723;BME280;67811;42.656;23.394;2023-05-14T11:23:55;95521.22;;;10.02;85.92
77723;BME280;67811;42.656;23.394;2023-05-14T11:26:22;95523.41;;;9.82;86.06
77723;BME280;67811;42.656;23.394;2023-05-14T11:28:48;95519.75;;;9.91;86.67
77723;BME280;67811;42.656;23.394;2023-05-14T11:31:13;95521.22;;;9.94;87.39
77723;BME280;67811;42.656;23.394;2023-05-14T11:33:38;95520.72;;;10.07;87.19
77723;BME280;67811;42.656;23.394;2023-05-14T11:36:04;95507.09;;;10.26;87.39
77723;BME280;67811;42.656;23.394;2023-05-14T11:38:29;95499.81;;;10.20;86.46
77723;BME280;67811;42.656;23.394;2023-05-14T11:40:56;95509.41;;;10.29;86.30
77723;BME280;67811;42.656;23.394;2023-05-14T11:43:22;95513.19;;;10.26;86.67
77723;BME280;67811;42.656;23.394;2023-05-14T11:45:51;95510.16;;;10.38;86.19
77723;BME280;67811;42.656;23.394;2023-05-14T11:48:18;95498.28;;;10.65;86.46
77723;BME280;67811;42.656;23.394;2023-05-14T11:50:50;95497.88;;;10.76;84.87
77723;BME280;67811;42.656;23.394;2023-05-14T11:53:24;95493.38;;;10.53;84.12
77723;BME280;67811;42.656;23.394;2023-05-14T11:55:49;95490.78;;;10.45;84.17
77723;BME280;67811;42.656;23.394;2023-05-14T11:58:15;95486.31;;;10.46;83.72
77723;BME280;67811;42.656;23.394;2023-05-14T12:00:40;95483.38;;;10.64;84.24
77723;BME280;67811;42.656;23.394;2023-05-14T12:03:08;95480.22;;;10.91;83.20
77723;BME280;67811;42.656;23.394;2023-05-14T12:05:37;95482.16;;;10.74;82.04
77723;BME280;67811;42.656;23.394;2023-05-14T12:08:02;95475.50;;;11.01;83.15
77723;BME280;67811;42.656;23.394;2023-05-14T12:10:27;95482.97;;;11.21;82.70
77723;BME280;67811;42.656;23.394;2023-05-14T12:12:52;95472.47;;;11.27;82.38
77723;BME280;67811;42.656;23.394;2023-05-14T12:15:18;95474.31;;;11.27;81.21
77723;BME280;67811;42.656;23.394;2023-05-14T12:17:52;95464.03;;;11.24;81.04
77723;BME280;67811;42.656;23.394;2023-05-14T12:20:17;95454.38;;;11.46;80.94
77723;BME280;67811;42.656;23.394;2023-05-14T12:22:43;95454.31;;;11.69;80.66
77723;BME280;67811;42.656;23.394;2023-05-14T12:25:12;95452.28;;;11.56;79.11
77723;BME280;67811;42.656;23.394;2023-05-14T12:27:37;95440.38;;;11.52;79.75
77723;BME280;67811;42.656;23.394;2023-05-14T12:30:04;95440.81;;;11.41;79.71
77723;BME280;67811;42.656;23.394;2023-05-14T12:32:31;95426.00;;;11.46;79.22
77723;BME280;67811;42.656;23.394;2023-05-14T12:34:56;95442.66;;;11.40;79.84
77723;BME280;67811;42.656;23.394;2023-05-14T12:37:21;95419.31;;;11.35;80.23
77723;BME280;67811;42.656;23.394;2023-05-14T12:39:47;95424.88;;;11.26;79.59
77723;BME280;67811;42.656;23.394;2023-05-14T12:42:14;95432.06;;;11.02;79.86
77723;BME280;67811;42.656;23.394;2023-05-14T12:44:39;95420.44;;;11.03;80.21
77723;BME280;67811;42.656;23.394;2023-05-14T12:47:05;95419.28;;;11.06;81.43
77723;BME280;67811;42.656;23.394;2023-05-14T12:49:30;95411.97;;;11.08;80.48
77723;BME280;67811;42.656;23.394;2023-05-14T12:51:55;95419.28;;;11.06;80.35
77723;BME280;67811;42.656;23.394;2023-05-14T12:54:20;95426.84;;;11.09;81.31
77723;BME280;67811;42.656;23.394;2023-05-14T12:56:46;95423.31;;;11.17;80.77
77723;BME280;67811;42.656;23.394;2023-05-14T12:59:11;95425.00;;;11.32;80.46